sensor_id;sensor_type;location;lat;lon;timestamp;temperature;humidity
8067;DHT22;4076;48.076;9.118;2023-05-07T00:00:19;11.10;99.90
8067;DHT22;4076;48.076;9.118;2023-05-07T00:02:45;11.00;99.90
8067;DHT22;4076;48.076;9.118;2023-05-07T00:05:11;11.00;99.90
8067;DHT22;4076;48.076;9.118;2023-05-07T00:07:37;11.00;99.90
8067;DHT22;4076;48.076;9.118;2023-05-07T00:10:03;11.00;99.90
8067;DHT22;4076;48.076;9.118;2023-05-07T00:12:29;10.90;99.90
8067;DHT22;4076;48.076;9.118;2023-05-07T00:14:57;10.90;99.90
8067;DHT22;4076;48.076;9.118;2023-05-07T00:17:22;10.90;99.90
8067;DHT22;4076;48.076;9.118;2023-05-07T00:19:48;10.80;99.90
8067;DHT22;4076;48.076;9.118;2023-05-07T00:22:14;10.80;99.90
8067;DHT22;4076;48.076;9.118;2023-05-07T00:24:39;10.80;99.90
8067;DHT22;4076;48.076;9.118;2023-05-07T00:27:05;10.80;99.90
8067;DHT22;4076;48.076;9.118;2023-05-07T00:29:31;10.80;99.90
8067;DHT22;4076;48.076;9.118;2023-05-07T00:31:56;10.70;99.90
8067;DHT22;4076;48.076;9.118;2023-05-07T00:34:22;10.70;99.90
8067;DHT22;4076;48.076;9.118;2023-05-07T00:36:48;10.70;99.90
8067;DHT22;4076;48.076;9.118;2023-05-07T00:39:13;10.70;99.90
8067;DHT22;4076;48.076;9.118;2023-05-07T00:41:39;10.70;99.90
8067;DHT22;4076;48.076;9.118;2023-05-07T00:44:04;10.70;99.90
8067;DHT22;4076;48.076;9.118;2023-05-07T00:46:31;10.60;99.90
8067;DHT22;4076;48.076;9.118;2023-05-07T00:48:58;10.60;99.90
8067;DHT22;4076;48.076;9.118;2023-05-07T00:51:25;10.60;99.90
8067;DHT22;4076;48.076;9.118;2023-05-07T00:53:52;10.60;99.90
8067;DHT22;4076;48.076;9.118;2023-05-07T00:56:17;10.50;99.90
8067;DHT22;4076;48.076;9.118;2023-05-07T00:58:43;10.50;99.90
8067;DHT22;4076;48.076;9.118;2023-05-07T01:01:09;10.50;99.90
8067;DHT22;4076;48.076;9.118;2023-05-07T01:03:34;10.50;99.90
8067;DHT22;4076;48.076;9.118;2023-05-07T01:06:01;10.50;99.90
8067;DHT22;4076;48.076;9.118;2023-05-07T01:08:28;10.50;99.90
8067;DHT22;4076;48.076;9.118;2023-05-07T01:10:55;10.50;99.90
8067;DHT22;4076;48.076;9.118;2023-05-07T01:13:21;10.50;99.90
8067;DHT22;4076;48.076;9.118;2023-05-07T01:15:47;10.50;99.90
8067;DHT22;4076;48.076;9.118;2023-05-07T01:18:13;10.40;99.90
8067;DHT22;4076;48.076;9.118;2023-05-07T01:20:39;10.40;99.90
8067;DHT22;4076;48.076;9.118;2023-05-07T01:23:06;10.40;99.90
8067;DHT22;4076;48.076;9.118;2023-05-07T01:25:32;10.40;99.90
8067;DHT22;4076;48.076;9.118;2023-05-07T01:27:58;10.40;99.90
8067;DHT22;4076;48.076;9.118;2023-05-07T01:30:26;10.40;99.90
8067;DHT22;4076;48.076;9.118;2023-05-07T01:33:03;10.40;99.90
8067;DHT22;4076;48.076;9.118;2023-05-07T01:35:34;10.30;99.90
8067;DHT22;4076;48.076;9.118;2023-05-07T01:38:01;10.30;99.90
8067;DHT22;4076;48.076;9.118;2023-05-07T01:40:29;10.30;99.90
8067;DHT22;4076;48.076;9.118;2023-05-07T01:42:55;10.30;99.90
8067;DHT22;4076;48.076;9.118;2023-05-07T01:45:21;10.30;99.90
8067;DHT22;4076;48.076;9.118;2023-05-07T01:47:48;10.20;99.90
8067;DHT22;4076;48.076;9.118;2023-05-07T01:50:16;10.30;99.90
8067;DHT22;4076;48.076;9.118;2023-05-07T01:52:43;10.30;99.90
8067;DHT22;4076;48.076;9.118;2023-05-07T01:55:09;10.20;99.90
8067;DHT22;4076;48.076;9.118;2023-05-07T01:57:34;10.20;99.90
8067;DHT22;4076;48.076;9.118;2023-05-07T02:00:00;10.20;99.90
8067;DHT22;4076;48.076;9.118;2023-05-07T02:02:28;10.20;99.90
8067;DHT22;4076;48.076;9.118;2023-05-07T02:04:53;10.20;99.90
8067;DHT22;4076;48.076;9.118;2023-05-07T02:07:18;10.10;99.90
8067;DHT22;4076;48.076;9.118;2023-05-07T02:09:44;10.10;99.90
8067;DHT22;4076;48.076;9.118;2023-05-07T02:12:09;10.00;99.90
8067;DHT22;4076;48.076;9.118;2023-05-07T02:14:35;9.90;99.90
8067;DHT22;4076;48.076;9.118;2023-05-07T02:17:00;9.90;99.90
8067;DHT22;4076;48.076;9.118;2023-05-07T02:19:26;9.80;99.90
8067;DHT22;4076;48.076;9.118;2023-05-07T02:21:51;9.80;99.90
8067;DHT22;4076;48.076;9.118;2023-05-07T02:24:18;9.80;99.90
8067;DHT22;4076;48.076;9.118;2023-05-07T02:26:43;9.70;99.90
8067;DHT22;4076;48.076;9.118;2023-05-07T02:29:09;9.70;99.90
8067;DHT22;4076;48.076;9.118;2023-05-07T02:31:34;9.70;99.90
8067;DHT22;4076;48.076;9.118;2023-05-07T02:34:00;9.60;99.90
8067;DHT22;4076;48.076;9.118;2023-05-07T02:36:26;9.70;99.90
8067;DHT22;4076;48.076;9.118;2023-05-07T02:38:52;9.60;99.90
8067;DHT22;4076;48.076;9.118;2023-05-07T02:41:17;9.60;99.90
8067;DHT22;4076;48.076;9.118;2023-05-07T02:43:43;9.50;99.90
8067;DHT22;4076;48.076;9.118;2023-05-07T02:46:09;9.50;99.90
8067;DHT22;4076;48.076;9.118;2023-05-07T02:48:34;9.50;99.90
8067;DHT22;4076;48.076;9.118;2023-05-07T02:51:01;9.50;99.90
8067;DHT22;4076;48.076;9.118;2023-05-07T02:53:27;9.50;99.90
8067;DHT22;4076;48.076;9.118;2023-05-07T02:55:57;9.50;99.90
8067;DHT22;4076;48.076;9.118;2023-05-07T02:58:23;9.40;99.90
8067;DHT22;4076;48.076;9.118;2023-05-07T03:00:48;9.30;99.90
8067;DHT22;4076;48.076;9.118;2023-05-07T03:03:15;9.30;99.90
8067;DHT22;4076;48.076;9.118;2023-05-07T03:05:40;9.30;99.90
8067;DHT22;4076;48.076;9.118;2023-05-07T03:08:07;9.20;99.90
8067;DHT22;4076;48.076;9.118;2023-05-07T03:10:33;9.20;99.90
8067;DHT22;4076;48.076;9.118;2023-05-07T03:12:58;9.20;99.90
8067;DHT22;4076;48.076;9.118;2023-05-07T03:15:24;9.20;99.90
8067;DHT22;4076;48.076;9.118;2023-05-07T03:17:50;9.30;99.90
8067;DHT22;4076;48.076;9.118;2023-05-07T03:20:15;9.20;99.90
8067;DHT22;4076;48.076;9.118;2023-05-07T03:22:41;9.20;99.90
8067;DHT22;4076;48.076;9.118;2023-05-07T03:25:08;9.10;99.90
8067;DHT22;4076;48.076;9.118;2023-05-07T03:27:33;9.10;99.90
8067;DHT22;4076;48.076;9.118;2023-05-07T03:30:00;9.00;99.90
8067;DHT22;4076;48.076;9.118;2023-05-07T03:32:25;9.00;99.90
8067;DHT22;4076;48.076;9.118;2023-05-07T03:34:51;8.90;99.90
8067;DHT22;4076;48.076;9.118;2023-05-07T03:37:17;8.90;99.90
8067;DHT22;4076;48.076;9.118;2023-05-07T03:39:42;8.90;99.90
8067;DHT22;4076;48.076;9.118;2023-05-07T03:42:07;8.90;99.90
8067;DHT22;4076;48.076;9.118;2023-05-07T03:44:33;8.80;99.90
8067;DHT22;4076;48.076;9.118;2023-05-07T03:46:59;8.90;99.90
8067;DHT22;4076;48.076;9.118;2023-05-07T03:49:24;8.80;99.90
8067;DHT22;4076;48.076;9.118;2023-05-07T03:51:50;8.80;99.90
8067;DHT22;4076;48.076;9.118;2023-05-07T03:54:15;8.80;99.90
8067;DHT22;4076;48.076;9.118;2023-05-07T03:56:41;8.70;99.90
8067;DHT22;4076;48.076;9.118;2023-05-07T03:59:06;8.60;99.90
8067;DHT22;4076;48.076;9.118;2023-05-07T04:01:32;8.60;99.90
8067;DHT22;4076;48.076;9.118;2023-05-07T04:03:57;8.70;99.90
8067;DHT22;4076;48.076;9.118;2023-05-07T04:06:23;8.60;99.90
8067;DHT22;4076;48.076;9.118;2023-05-07T04:08:49;8.60;99.90
8067;DHT22;4076;48.076;9.118;2023-05-07T04:11:15;8.50;99.90
8067;DHT22;4076;48.076;9.118;2023-05-07T04:13:40;8.50;99.90
8067;DHT22;4076;48.076;9.118;2023-05-07T04:16:06;8.60;99.90
8067;DHT22;4076;48.076;9.118;2023-05-07T04:18:31;8.60;99.90
8067;DHT22;4076;48.076;9.118;2023-05-07T04:20:57;8.60;99.90
8067;DHT22;4076;48.076;9.118;2023-05-07T04:23:22;8.60;99.90
8067;DHT22;4076;48.076;9.118;2023-05-07T04:25:48;8.70;99.90
8067;DHT22;4076;48.076;9.118;2023-05-07T04:28:13;8.70;99.90
8067;DHT22;4076;48.076;9.118;2023-05-07T04:30:39;8.70;99.90
8067;DHT22;4076;48.076;9.118;2023-05-07T04:33:06;8.80;99.90
8067;DHT22;4076;48.076;9.118;2023-05-07T04:35:32;8.80;99.90
8067;DHT22;4076;48.076;9.118;2023-05-07T04:37:58;8.80;99.90
8067;DHT22;4076;48.076;9.118;2023-05-07T04:40:24;8.90;99.90
8067;DHT22;4076;48.076;9.118;2023-05-07T04:42:49;9.00;99.90
8067;DHT22;4076;48.076;9.118;2023-05-07T04:45:15;9.00;99.90
8067;DHT22;4076;48.076;9.118;2023-05-07T04:47:40;9.10;99.90
8067;DHT22;4076;48.076;9.118;2023-05-07T04:50:09;9.20;99.90
8067;DHT22;4076;48.076;9.118;2023-05-07T04:52:35;9.30;99.90
8067;DHT22;4076;48.076;9.118;2023-05-07T04:55:01;9.60;99.90
8067;DHT22;4076;48.076;9.118;2023-05-07T04:57:27;9.70;99.90
8067;DHT22;4076;48.076;9.118;2023-05-07T04:59:53;9.90;99.90
8067;DHT22;4076;48.076;9.118;2023-05-07T05:02:19;10.20;99.90
8067;DHT22;4076;48.076;9.118;2023-05-07T05:04:45;10.30;99.90
8067;DHT22;4076;48.076;9.118;2023-05-07T05:07:11;10.30;99.90
8067;DHT22;4076;48.076;9.118;2023-05-07T05:09:36;10.30;99.90
8067;DHT22;4076;48.076;9.118;2023-05-07T05:12:02;10.30;99.90
8067;DHT22;4076;48.076;9.118;2023-05-07T05:14:27;10.40;99.90
8067;DHT22;4076;48.076;9.118;2023-05-07T05:16:53;10.40;99.90
8067;DHT22;4076;48.076;9.118;2023-05-07T05:19:18;10.50;99.90
8067;DHT22;4076;48.076;9.118;2023-05-07T05:21:44;10.50;99.90
8067;DHT22;4076;48.076;9.118;2023-05-07T05:24:09;10.50;99.90
8067;DHT22;4076;48.076;9.118;2023-05-07T05:26:35;10.50;99.90
8067;DHT22;4076;48.076;9.118;2023-05-07T05:29:00;10.70;99.90
8067;DHT22;4076;48.076;9.118;2023-05-07T05:31:26;10.80;99.90
8067;DHT22;4076;48.076;9.118;2023-05-07T05:33:51;10.90;99.90
8067;DHT22;4076;48.076;9.118;2023-05-07T05:36:17;11.20;99.90
8067;DHT22;4076;48.076;9.118;2023-05-07T05:38:43;11.40;99.90
8067;DHT22;4076;48.076;9.118;2023-05-07T05:41:10;11.50;99.90
8067;DHT22;4076;48.076;9.118;2023-05-07T05:43:36;11.70;99.90
8067;DHT22;4076;48.076;9.118;2023-05-07T05:46:01;12.00;99.90
8067;DHT22;4076;48.076;9.118;2023-05-07T05:48:28;12.20;99.90
8067;DHT22;4076;48.076;9.118;2023-05-07T05:50:54;12.40;99.90
8067;DHT22;4076;48.076;9.118;2023-05-07T05:53:19;12.50;99.90
8067;DHT22;4076;48.076;9.118;2023-05-07T05:55:45;12.60;99.90
8067;DHT22;4076;48.076;9.118;2023-05-07T05:58:11;12.60;99.90
8067;DHT22;4076;48.076;9.118;2023-05-07T06:00:36;12.80;99.90
8067;DHT22;4076;48.076;9.118;2023-05-07T06:03:02;13.00;99.90
8067;DHT22;4076;48.076;9.118;2023-05-07T06:05:28;13.20;99.90
8067;DHT22;4076;48.076;9.118;2023-05-07T06:07:53;13.30;99.90
8067;DHT22;4076;48.076;9.118;2023-05-07T06:10:19;13.50;99.90
8067;DHT22;4076;48.076;9.118;2023-05-07T06:12:44;13.80;99.90
8067;DHT22;4076;48.076;9.118;2023-05-07T06:15:10;14.20;99.90
8067;DHT22;4076;48.076;9.118;2023-05-07T06:17:36;14.60;99.90
8067;DHT22;4076;48.076;9.118;2023-05-07T06:20:01;14.90;99.90
8067;DHT22;4076;48.076;9.118;2023-05-07T06:22:27;15.00;99.90
8067;DHT22;4076;48.076;9.118;2023-05-07T06:24:52;15.10;99.90
8067;DHT22;4076;48.076;9.118;2023-05-07T06:27:18;15.20;99.90
8067;DHT22;4076;48.076;9.118;2023-05-07T06:29:43;15.30;99.90
8067;DHT22;4076;48.076;9.118;2023-05-07T06:32:10;15.50;99.90
8067;DHT22;4076;48.076;9.118;2023-05-07T06:34:36;15.90;99.90
8067;DHT22;4076;48.076;9.118;2023-05-07T06:37:02;16.40;99.90
8067;DHT22;4076;48.076;9.118;2023-05-07T06:39:28;16.60;99.90
8067;DHT22;4076;48.076;9.118;2023-05-07T06:41:53;16.80;99.90
8067;DHT22;4076;48.076;9.118;2023-05-07T06:44:19;17.10;99.90
8067;DHT22;4076;48.076;9.118;2023-05-07T06:46:44;17.20;99.90
8067;DHT22;4076;48.076;9.118;2023-05-07T06:49:11;17.30;99.90
8067;DHT22;4076;48.076;9.118;2023-05-07T06:51:37;17.20;99.90
8067;DHT22;4076;48.076;9.118;2023-05-07T06:54:03;17.30;99.90
8067;DHT22;4076;48.076;9.118;2023-05-07T06:56:30;17.40;99.90
8067;DHT22;4076;48.076;9.118;2023-05-07T06:58:55;17.50;99.90
8067;DHT22;4076;48.076;9.118;2023-05-07T07:01:21;17.60;99.90
8067;DHT22;4076;48.076;9.118;2023-05-07T07:03:46;17.60;99.90
8067;DHT22;4076;48.076;9.118;2023-05-07T07:06:12;17.50;99.90
8067;DHT22;4076;48.076;9.118;2023-05-07T07:08:38;17.50;99.90
8067;DHT22;4076;48.076;9.118;2023-05-07T07:11:04;17.50;99.90
8067;DHT22;4076;48.076;9.118;2023-05-07T07:13:30;17.70;99.90
8067;DHT22;4076;48.076;9.118;2023-05-07T07:15:56;18.00;99.90
8067;DHT22;4076;48.076;9.118;2023-05-07T07:18:21;18.40;99.90
8067;DHT22;4076;48.076;9.118;2023-05-07T07:20:47;18.80;99.90
8067;DHT22;4076;48.076;9.118;2023-05-07T07:23:13;19.00;99.90
8067;DHT22;4076;48.076;9.118;2023-05-07T07:25:39;19.30;99.90
8067;DHT22;4076;48.076;9.118;2023-05-07T07:28:05;19.70;99.90
8067;DHT22;4076;48.076;9.118;2023-05-07T07:30:30;20.00;99.90
8067;DHT22;4076;48.076;9.118;2023-05-07T07:32:56;20.00;96.90
8067;DHT22;4076;48.076;9.118;2023-05-07T07:35:30;19.90;95.30
8067;DHT22;4076;48.076;9.118;2023-05-07T07:37:56;19.70;94.20
8067;DHT22;4076;48.076;9.118;2023-05-07T07:40:21;19.70;92.30
8067;DHT22;4076;48.076;9.118;2023-05-07T07:42:47;19.70;92.60
8067;DHT22;4076;48.076;9.118;2023-05-07T07:45:13;20.00;92.60
8067;DHT22;4076;48.076;9.118;2023-05-07T07:47:39;20.40;92.20
8067;DHT22;4076;48.076;9.118;2023-05-07T07:50:05;21.20;91.20
8067;DHT22;4076;48.076;9.118;2023-05-07T07:52:31;21.70;90.50
8067;DHT22;4076;48.076;9.118;2023-05-07T07:54:57;21.80;84.60
8067;DHT22;4076;48.076;9.118;2023-05-07T07:57:22;21.60;82.10
8067;DHT22;4076;48.076;9.118;2023-05-07T07:59:48;21.50;80.00
8067;DHT22;4076;48.076;9.118;2023-05-07T08:02:14;21.60;74.80
8067;DHT22;4076;48.076;9.118;2023-05-07T08:04:40;22.00;77.10
8067;DHT22;4076;48.076;9.118;2023-05-07T08:07:05;22.70;74.90
8067;DHT22;4076;48.076;9.118;2023-05-07T08:09:31;23.60;69.80
8067;DHT22;4076;48.076;9.118;2023-05-07T08:11:57;24.50;74.60
8067;DHT22;4076;48.076;9.118;2023-05-07T08:14:22;25.60;57.50
8067;DHT22;4076;48.076;9.118;2023-05-07T08:16:48;26.60;57.60
8067;DHT22;4076;48.076;9.118;2023-05-07T08:19:13;27.10;54.90
8067;DHT22;4076;48.076;9.118;2023-05-07T08:21:39;28.10;53.90
8067;DHT22;4076;48.076;9.118;2023-05-07T08:24:06;29.20;50.20
8067;DHT22;4076;48.076;9.118;2023-05-07T08:26:31;30.40;46.90
8067;DHT22;4076;48.076;9.118;2023-05-07T08:28:57;31.10;45.40
8067;DHT22;4076;48.076;9.118;2023-05-07T08:31:22;31.90;42.90
8067;DHT22;4076;48.076;9.118;2023-05-07T08:33:48;32.60;40.00
8067;DHT22;4076;48.076;9.118;2023-05-07T08:36:13;33.70;39.70
8067;DHT22;4076;48.076;9.118;2023-05-07T08:38:39;34.40;37.10
8067;DHT22;4076;48.076;9.118;2023-05-07T08:41:10;35.30;36.00
8067;DHT22;4076;48.076;9.118;2023-05-07T08:43:36;36.20;35.60
8067;DHT22;4076;48.076;9.118;2023-05-07T08:46:04;37.00;33.50
8067;DHT22;4076;48.076;9.118;2023-05-07T08:48:31;37.20;32.60
8067;DHT22;4076;48.076;9.118;2023-05-07T08:50:58;38.00;33.60
8067;DHT22;4076;48.076;9.118;2023-05-07T08:53:24;38.90;37.90
8067;DHT22;4076;48.076;9.118;2023-05-07T08:55:49;39.00;28.90
8067;DHT22;4076;48.076;9.118;2023-05-07T08:58:15;38.90;28.60
8067;DHT22;4076;48.076;9.118;2023-05-07T09:00:41;38.30;28.70
8067;DHT22;4076;48.076;9.118;2023-05-07T09:03:07;37.90;28.70
8067;DHT22;4076;48.076;9.118;2023-05-07T09:05:33;37.40;29.30
8067;DHT22;4076;48.076;9.118;2023-05-07T09:08:07;37.00;29.50
8067;DHT22;4076;48.076;9.118;2023-05-07T09:10:34;37.20;29.90
8067;DHT22;4076;48.076;9.118;2023-05-07T09:12:59;36.90;29.20
8067;DHT22;4076;48.076;9.118;2023-05-07T09:15:26;36.70;29.70
8067;DHT22;4076;48.076;9.118;2023-05-07T09:17:52;36.90;30.00
8067;DHT22;4076;48.076;9.118;2023-05-07T09:20:17;37.00;29.70
8067;DHT22;4076;48.076;9.118;2023-05-07T09:22:43;36.90;29.60
8067;DHT22;4076;48.076;9.118;2023-05-07T09:25:09;36.70;29.50
8067;DHT22;4076;48.076;9.118;2023-05-07T09:27:35;36.30;29.80
8067;DHT22;4076;48.076;9.118;2023-05-07T09:30:05;35.90;30.20
8067;DHT22;4076;48.076;9.118;2023-05-07T09:32:34;35.30;31.00
8067;DHT22;4076;48.076;9.118;2023-05-07T09:35:00;34.90;34.30
8067;DHT22;4076;48.076;9.118;2023-05-07T09:37:26;35.10;35.70
8067;DHT22;4076;48.076;9.118;2023-05-07T09:39:52;35.20;34.80
8067;DHT22;4076;48.076;9.118;2023-05-07T09:42:23;35.20;36.40
8067;DHT22;4076;48.076;9.118;2023-05-07T09:44:50;35.40;32.00
8067;DHT22;4076;48.076;9.118;2023-05-07T09:47:19;35.10;31.70
8067;DHT22;4076;48.076;9.118;2023-05-07T09:49:47;34.50;32.20
8067;DHT22;4076;48.076;9.118;2023-05-07T09:52:13;33.60;33.40
8067;DHT22;4076;48.076;9.118;2023-05-07T09:54:40;32.40;33.80
8067;DHT22;4076;48.076;9.118;2023-05-07T09:57:12;31.40;34.90
8067;DHT22;4076;48.076;9.118;2023-05-07T09:59:40;30.50;36.30
8067;DHT22;4076;48.076;9.118;2023-05-07T10:02:07;29.70;36.90
8067;DHT22;4076;48.076;9.118;2023-05-07T10:04:35;29.00;38.30
8067;DHT22;4076;48.076;9.118;2023-05-07T10:07:03;28.70;39.10
8067;DHT22;4076;48.076;9.118;2023-05-07T10:09:30;28.50;39.30
8067;DHT22;4076;48.076;9.118;2023-05-07T10:11:56;28.20;40.00
8067;DHT22;4076;48.076;9.118;2023-05-07T10:14:22;28.00;40.30
8067;DHT22;4076;48.076;9.118;2023-05-07T10:16:49;27.70;41.10
8067;DHT22;4076;48.076;9.118;2023-05-07T10:19:15;27.60;41.50
8067;DHT22;4076;48.076;9.118;2023-05-07T10:21:48;27.60;40.90
8067;DHT22;4076;48.076;9.118;2023-05-07T10:24:26;27.10;40.80
8067;DHT22;4076;48.076;9.118;2023-05-07T10:26:55;26.70;42.30
8067;DHT22;4076;48.076;9.118;2023-05-07T10:29:33;26.60;41.80
8067;DHT22;4076;48.076;9.118;2023-05-07T10:32:12;26.50;42.40
8067;DHT22;4076;48.076;9.118;2023-05-07T10:34:44;26.60;44.60
8067;DHT22;4076;48.076;9.118;2023-05-07T10:37:11;26.70;43.80
8067;DHT22;4076;48.076;9.118;2023-05-07T10:39:37;26.90;44.20
8067;DHT22;4076;48.076;9.118;2023-05-07T10:42:13;26.90;44.20
8067;DHT22;4076;48.076;9.118;2023-05-07T10:44:39;26.80;44.30
8067;DHT22;4076;48.076;9.118;2023-05-07T10:49:31;26.90;44.70
8067;DHT22;4076;48.076;9.118;2023-05-07T10:52:19;27.00;44.60
8067;DHT22;4076;48.076;9.118;2023-05-07T10:54:46;27.00;44.80
8067;DHT22;4076;48.076;9.118;2023-05-07T10:57:34;26.90;45.20
8067;DHT22;4076;48.076;9.118;2023-05-07T11:00:03;26.70;46.00
8067;DHT22;4076;48.076;9.118;2023-05-07T11:05:31;26.40;46.50
8067;DHT22;4076;48.076;9.118;2023-05-07T11:07:59;26.20;46.80
8067;DHT22;4076;48.076;9.118;2023-05-07T11:10:51;26.10;47.40
8067;DHT22;4076;48.076;9.118;2023-05-07T11:13:18;26.30;47.20
8067;DHT22;4076;48.076;9.118;2023-05-07T11:15:45;26.30;46.70
8067;DHT22;4076;48.076;9.118;2023-05-07T11:18:13;26.40;47.30
8067;DHT22;4076;48.076;9.118;2023-05-07T11:20:56;26.30;46.40
8067;DHT22;4076;48.076;9.118;2023-05-07T11:26:02;25.90;47.20
8067;DHT22;4076;48.076;9.118;2023-05-07T11:28:29;25.70;46.20
8067;DHT22;4076;48.076;9.118;2023-05-07T11:30:56;25.70;47.50
8067;DHT22;4076;48.076;9.118;2023-05-07T11:33:22;25.50;45.20
8067;DHT22;4076;48.076;9.118;2023-05-07T11:35:48;25.30;45.90
8067;DHT22;4076;48.076;9.118;2023-05-07T11:38:15;25.30;46.30
8067;DHT22;4076;48.076;9.118;2023-05-07T11:40:51;25.10;45.40
8067;DHT22;4076;48.076;9.118;2023-05-07T11:43:17;24.80;45.70
8067;DHT22;4076;48.076;9.118;2023-05-07T11:45:44;24.60;46.00
8067;DHT22;4076;48.076;9.118;2023-05-07T11:48:10;24.50;46.00
8067;DHT22;4076;48.076;9.118;2023-05-07T11:50:35;24.50;46.10
8067;DHT22;4076;48.076;9.118;2023-05-07T11:53:07;24.60;47.00
8067;DHT22;4076;48.076;9.118;2023-05-07T11:55:33;24.70;47.40
8067;DHT22;4076;48.076;9.118;2023-05-07T11:57:58;24.70;47.60
8067;DHT22;4076;48.076;9.118;2023-05-07T12:00:24;24.70;47.90
8067;DHT22;4076;48.076;9.118;2023-05-07T12:02:50;24.80;48.30
8067;DHT22;4076;48.076;9.118;2023-05-07T12:05:15;24.80;48.80
8067;DHT22;4076;48.076;9.118;2023-05-07T12:07:41;24.80;48.50
8067;DHT22;4076;48.076;9.118;2023-05-07T12:10:07;24.80;49.10
8067;DHT22;4076;48.076;9.118;2023-05-07T12:12:40;24.90;49.20
8067;DHT22;4076;48.076;9.118;2023-05-07T12:15:07;25.00;49.30
8067;DHT22;4076;48.076;9.118;2023-05-07T12:17:33;25.20;49.50
8067;DHT22;4076;48.076;9.118;2023-05-07T12:19:59;25.30;47.20
8067;DHT22;4076;48.076;9.118;2023-05-07T12:22:25;25.20;48.60
8067;DHT22;4076;48.076;9.118;2023-05-07T12:24:57;25.30;47.80
8067;DHT22;4076;48.076;9.118;2023-05-07T12:27:23;25.20;47.70
8067;DHT22;4076;48.076;9.118;2023-05-07T12:29:50;25.10;47.30
8067;DHT22;4076;48.076;9.118;2023-05-07T12:32:20;24.80;47.10
8067;DHT22;4076;48.076;9.118;2023-05-07T12:34:49;24.40;47.40
8067;DHT22;4076;48.076;9.118;2023-05-07T12:37:15;24.20;47.10
8067;DHT22;4076;48.076;9.118;2023-05-07T12:40:07;23.90;47.60
8067;DHT22;4076;48.076;9.118;2023-05-07T12:42:35;23.80;48.50
8067;DHT22;4076;48.076;9.118;2023-05-07T12:45:08;23.60;49.60
8067;DHT22;4076;48.076;9.118;2023-05-07T12:47:34;23.50;49.60
8067;DHT22;4076;48.076;9.118;2023-05-07T12:49:59;23.40;49.60
8067;DHT22;4076;48.076;9.118;2023-05-07T12:52:25;23.40;50.80
8067;DHT22;4076;48.076;9.118;2023-05-07T12:54:51;23.40;50.70
8067;DHT22;4076;48.076;9.118;2023-05-07T12:57:19;23.40;49.90
8067;DHT22;4076;48.076;9.118;2023-05-07T12:59:45;23.40;50.00
8067;DHT22;4076;48.076;9.118;2023-05-07T13:02:11;23.30;49.30
8067;DHT22;4076;48.076;9.118;2023-05-07T13:04:36;23.30;49.30
8067;DHT22;4076;48.076;9.118;2023-05-07T13:07:02;23.10;50.70
8067;DHT22;4076;48.076;9.118;2023-05-07T13:09:28;23.00;49.90
8067;DHT22;4076;48.076;9.118;2023-05-07T13:11:54;22.80;50.30
8067;DHT22;4076;48.076;9.118;2023-05-07T13:14:20;22.80;50.90
8067;DHT22;4076;48.076;9.118;2023-05-07T13:16:46;22.70;51.60
8067;DHT22;4076;48.076;9.118;2023-05-07T13:19:12;22.60;50.40
8067;DHT22;4076;48.076;9.118;2023-05-07T13:21:38;22.30;50.00
8067;DHT22;4076;48.076;9.118;2023-05-07T13:24:03;22.00;50.00
8067;DHT22;4076;48.076;9.118;2023-05-07T13:26:30;21.60;50.10
8067;DHT22;4076;48.076;9.118;2023-05-07T13:28:56;21.30;50.60
8067;DHT22;4076;48.076;9.118;2023-05-07T13:31:22;21.00;51.30
8067;DHT22;4076;48.076;9.118;2023-05-07T13:33:47;20.60;52.00
8067;DHT22;4076;48.076;9.118;2023-05-07T13:36:13;20.30;54.30
8067;DHT22;4076;48.076;9.118;2023-05-07T13:38:41;20.00;57.80
8067;DHT22;4076;48.076;9.118;2023-05-07T13:41:07;19.70;59.20
8067;DHT22;4076;48.076;9.118;2023-05-07T13:43:33;19.30;61.80
8067;DHT22;4076;48.076;9.118;2023-05-07T13:45:59;19.00;61.60
8067;DHT22;4076;48.076;9.118;2023-05-07T13:48:24;18.60;67.30
8067;DHT22;4076;48.076;9.118;2023-05-07T13:50:50;18.40;69.90
8067;DHT22;4076;48.076;9.118;2023-05-07T13:53:16;18.10;73.10
8067;DHT22;4076;48.076;9.118;2023-05-07T13:55:43;17.90;83.00
8067;DHT22;4076;48.076;9.118;2023-05-07T13:58:09;17.60;86.40
8067;DHT22;4076;48.076;9.118;2023-05-07T14:00:35;17.40;97.40
8067;DHT22;4076;48.076;9.118;2023-05-07T14:03:01;17.30;99.90
8067;DHT22;4076;48.076;9.118;2023-05-07T14:05:26;17.20;99.90
8067;DHT22;4076;48.076;9.118;2023-05-07T14:07:54;17.20;99.90
8067;DHT22;4076;48.076;9.118;2023-05-07T14:10:20;17.20;99.90
8067;DHT22;4076;48.076;9.118;2023-05-07T14:12:46;17.20;99.90
8067;DHT22;4076;48.076;9.118;2023-05-07T14:15:12;17.20;99.90
8067;DHT22;4076;48.076;9.118;2023-05-07T14:17:37;17.40;99.90
8067;DHT22;4076;48.076;9.118;2023-05-07T14:20:03;17.50;99.90
8067;DHT22;4076;48.076;9.118;2023-05-07T14:22:29;17.70;99.90
8067;DHT22;4076;48.076;9.118;2023-05-07T14:24:54;17.80;99.90
8067;DHT22;4076;48.076;9.118;2023-05-07T14:27:20;18.10;99.90
8067;DHT22;4076;48.076;9.118;2023-05-07T14:29:46;18.30;99.90
8067;DHT22;4076;48.076;9.118;2023-05-07T14:32:16;18.50;99.90
8067;DHT22;4076;48.076;9.118;2023-05-07T14:34:42;18.70;99.90
8067;DHT22;4076;48.076;9.118;2023-05-07T14:37:08;19.00;99.90
8067;DHT22;4076;48.076;9.118;2023-05-07T14:39:33;19.30;99.90
8067;DHT22;4076;48.076;9.118;2023-05-07T14:41:59;19.50;99.90
8067;DHT22;4076;48.076;9.118;2023-05-07T14:44:24;19.70;99.90
8067;DHT22;4076;48.076;9.118;2023-05-07T14:46:50;19.80;99.90
8067;DHT22;4076;48.076;9.118;2023-05-07T14:49:16;19.80;99.90
8067;DHT22;4076;48.076;9.118;2023-05-07T14:51:44;19.80;99.90
8067;DHT22;4076;48.076;9.118;2023-05-07T14:54:11;19.80;99.90
8067;DHT22;4076;48.076;9.118;2023-05-07T14:56:36;19.80;99.90
8067;DHT22;4076;48.076;9.118;2023-05-07T14:59:03;19.80;99.90
8067;DHT22;4076;48.076;9.118;2023-05-07T15:01:29;19.80;99.90
8067;DHT22;4076;48.076;9.118;2023-05-07T15:03:55;19.80;99.90
8067;DHT22;4076;48.076;9.118;2023-05-07T15:06:21;19.80;99.90
8067;DHT22;4076;48.076;9.118;2023-05-07T15:08:46;19.90;99.90
8067;DHT22;4076;48.076;9.118;2023-05-07T15:11:12;19.90;99.90
8067;DHT22;4076;48.076;9.118;2023-05-07T15:13:38;19.90;99.90
8067;DHT22;4076;48.076;9.118;2023-05-07T15:16:03;20.00;99.90
8067;DHT22;4076;48.076;9.118;2023-05-07T15:18:29;20.10;99.90
8067;DHT22;4076;48.076;9.118;2023-05-07T15:20:55;20.00;99.90
8067;DHT22;4076;48.076;9.118;2023-05-07T15:23:22;20.00;99.90
8067;DHT22;4076;48.076;9.118;2023-05-07T15:25:47;19.90;99.90
8067;DHT22;4076;48.076;9.118;2023-05-07T15:28:13;19.90;99.90
8067;DHT22;4076;48.076;9.118;2023-05-07T15:30:38;19.90;99.90
8067;DHT22;4076;48.076;9.118;2023-05-07T15:33:04;19.80;99.90
8067;DHT22;4076;48.076;9.118;2023-05-07T15:35:29;19.80;99.90
8067;DHT22;4076;48.076;9.118;2023-05-07T15:37:55;19.70;99.90
8067;DHT22;4076;48.076;9.118;2023-05-07T15:40:21;19.60;99.90
8067;DHT22;4076;48.076;9.118;2023-05-07T15:42:46;19.60;99.90
8067;DHT22;4076;48.076;9.118;2023-05-07T15:45:12;19.50;99.90
8067;DHT22;4076;48.076;9.118;2023-05-07T15:47:38;19.50;99.90
8067;DHT22;4076;48.076;9.118;2023-05-07T15:50:04;19.40;99.90
8067;DHT22;4076;48.076;9.118;2023-05-07T15:52:30;19.40;99.90
8067;DHT22;4076;48.076;9.118;2023-05-07T15:54:56;19.30;99.90
8067;DHT22;4076;48.076;9.118;2023-05-07T15:57:23;19.30;99.90
8067;DHT22;4076;48.076;9.118;2023-05-07T15:59:49;19.20;99.90
8067;DHT22;4076;48.076;9.118;2023-05-07T16:02:14;19.20;99.90
8067;DHT22;4076;48.076;9.118;2023-05-07T16:04:40;19.10;99.90
8067;DHT22;4076;48.076;9.118;2023-05-07T16:07:06;19.00;99.90